Bellevue, Canada
Current Conditions -  °F | °C
As of 5:11 AM on Saturday 25 Oct 2014 (Local Time) from CYYT Reporting Station
Moderate Fog Moderate Fog  
Wind Chill: 50°   Ceiling: 400
Heat Index: 50°   Visibility: 0.37mi
Dew Point: 50°   Wind: 6mph
Humidity: 100%   Direction: 300°WNW
Pressure: 29.48"   Gusts: NA
Location:  47.63°N, 53.75°W
Report Text: CYYT 250711Z 30005KT 3/8SM FG OVC004 10/10 A2948 RMK FG6SF2 SLP986
Loading
Personal Weather Stations






























Interactive Weather Map
Tropical Storm Tracking
New forecast layout! Learn more

10-Day Weather Forecast

Advertisements
Track Severe Weather on mobile